Terminal Aerodrome Forecast
Issued by NWS Sioux Falls, SD

Home | Current Version | Previous Version | Text Only | Print | Product List | Glossary On
Versions: 1 2 3 4 5 6 7 8 9 10 11 12 13 14 15 16
000
FTUS43 KFSD 260728 AAA
TAFSUX
TAF AMD
KSUX 260728Z 2607/2706 07007KT P6SM VCSH BKN100
      TEMPO 2607/2609 4SM TSRA BKN045CB
     FM261300 02007KT P6SM FEW130
     FM270300 07004KT P6SM SKC=

USA.gov is the U.S. government's official web portal to all federal, state and local government web resources and services.